createdAt,value
2017-04-19T00:00:22.399Z,10.38
2017-04-19T00:01:28.936Z,10.80
2017-04-19T00:02:35.337Z,11.55
2017-04-19T00:03:40.934Z,10.88
2017-04-19T00:04:46.363Z,10.55
2017-04-19T00:05:52.030Z,11.23
2017-04-19T00:06:57.509Z,11.27
2017-04-19T00:08:03.297Z,11.25
2017-04-19T00:09:08.818Z,11.33
2017-04-19T00:10:14.411Z,10.97
2017-04-19T00:11:19.409Z,12.18
2017-04-19T00:12:25.553Z,10.93
2017-04-19T00:13:31.241Z,10.77
2017-04-19T00:14:36.790Z,12.80
2017-04-19T00:15:42.344Z,11.33
2017-04-19T00:16:47.145Z,11.00
2017-04-19T00:17:53.649Z,11.92
2017-04-19T00:19:00.094Z,11.77
2017-04-19T00:20:06.539Z,12.32
2017-04-19T00:21:12.098Z,12.47
2017-04-19T00:22:17.674Z,11.30
2017-04-19T00:23:23.320Z,12.97
2017-04-19T00:24:29.582Z,12.30
2017-04-19T00:25:35.996Z,12.32
2017-04-19T00:26:41.469Z,11.75
2017-04-19T00:27:47.020Z,11.20
2017-04-19T00:28:52.630Z,11.60
2017-04-19T00:29:58.125Z,12.42
2017-04-19T00:31:03.746Z,13.28
2017-04-19T00:32:09.426Z,12.40
2017-04-19T00:33:15.021Z,11.92
2017-04-19T00:34:20.542Z,12.40
2017-04-19T00:35:26.012Z,12.40
2017-04-19T00:36:31.102Z,12.13
2017-04-19T00:37:36.528Z,12.10
2017-04-19T00:38:42.106Z,13.60
2017-04-19T00:39:48.277Z,12.40
2017-04-19T00:40:53.857Z,12.00
2017-04-19T00:41:58.775Z,12.98
2017-04-19T00:43:05.114Z,13.10
2017-04-19T00:44:10.872Z,12.20
2017-04-19T00:45:17.347Z,13.75
2017-04-19T00:46:22.032Z,12.72
2017-04-19T00:47:28.357Z,12.87
2017-04-19T00:48:33.886Z,12.97
2017-04-19T00:49:39.405Z,12.92
2017-04-19T00:50:44.914Z,13.25
2017-04-19T00:51:50.353Z,13.83
2017-04-19T00:52:55.960Z,12.13
2017-04-19T00:54:01.460Z,13.12
2017-04-19T00:55:07.121Z,12.17
2017-04-19T00:56:12.535Z,12.98
2017-04-19T00:57:18.098Z,13.62
2017-04-19T00:58:22.868Z,13.18
2017-04-19T00:59:28.354Z,13.82
2017-04-19T01:00:34.924Z,12.32
2017-04-19T01:01:41.449Z,12.60
2017-04-19T01:02:46.210Z,13.15
2017-04-19T01:03:52.481Z,14.72
2017-04-19T01:04:58.074Z,14.30
2017-04-19T01:06:02.941Z,13.02
2017-04-19T01:07:08.440Z,13.72
2017-04-19T01:08:13.975Z,13.57
2017-04-19T01:09:19.490Z,12.98
2017-04-19T01:10:25.097Z,12.78
2017-04-19T01:11:31.747Z,13.35
2017-04-19T01:12:37.260Z,12.95
2017-04-19T01:13:42.912Z,12.90
2017-04-19T01:14:48.441Z,14.60
2017-04-19T01:15:54.029Z,14.35
2017-04-19T01:16:59.597Z,13.77
2017-04-19T01:18:05.049Z,13.72
2017-04-19T01:19:09.893Z,12.75
2017-04-19T01:20:16.314Z,12.65
2017-04-19T01:21:21.919Z,13.53
2017-04-19T01:22:26.865Z,12.33
2017-04-19T01:23:32.271Z,13.83
2017-04-19T01:24:37.904Z,12.55
2017-04-19T01:25:44.345Z,13.65
2017-04-19T01:26:49.853Z,12.35
2017-04-19T01:27:55.473Z,13.42
2017-04-19T01:29:00.874Z,13.35
2017-04-19T01:30:05.774Z,14.12
2017-04-19T01:31:12.052Z,13.70
2017-04-19T01:32:17.629Z,13.70
2017-04-19T01:33:23.424Z,14.25
2017-04-19T01:34:29.764Z,13.67
2017-04-19T01:35:35.506Z,14.18
2017-04-19T01:36:40.965Z,13.82
2017-04-19T01:37:46.464Z,14.58
2017-04-19T01:38:52.113Z,15.95
2017-04-19T01:39:56.944Z,14.07
2017-04-19T01:41:03.485Z,14.75
2017-04-19T01:42:09.183Z,14.77
2017-04-19T01:43:14.843Z,14.10
2017-04-19T01:44:21.254Z,14.73
2017-04-19T01:45:26.769Z,14.27
2017-04-19T01:46:31.519Z,14.65
2017-04-19T01:47:37.906Z,14.55
2017-04-19T01:48:42.696Z,13.40
2017-04-19T01:49:47.472Z,13.18
2017-04-19T01:50:53.665Z,14.00
2017-04-19T01:51:58.410Z,14.97
2017-04-19T01:53:04.688Z,14.18
2017-04-19T01:54:10.125Z,15.10
2017-04-19T01:55:15.799Z,15.40
2017-04-19T01:56:22.206Z,13.98
2017-04-19T01:57:27.012Z,14.32
2017-04-19T01:58:32.658Z,14.13
2017-04-19T01:59:39.083Z,15.52
2017-04-19T02:00:44.753Z,14.92
2017-04-19T02:01:51.186Z,14.25
2017-04-19T02:02:56.737Z,15.28
2017-04-19T02:04:02.317Z,14.88
2017-04-19T02:05:07.998Z,15.05
2017-04-19T02:06:52.099Z,14.20
2017-04-19T02:07:58.481Z,14.97
2017-04-19T02:09:04.306Z,14.20
2017-04-19T02:10:09.986Z,16.62
2017-04-19T02:11:15.536Z,14.85
2017-04-19T02:12:22.095Z,16.13
2017-04-19T02:13:27.529Z,15.48
2017-04-19T02:14:33.460Z,16.73
2017-04-19T02:15:39.656Z,15.72
2017-04-19T02:16:45.367Z,16.97
2017-04-19T02:17:50.929Z,15.72
2017-04-19T02:18:56.409Z,16.10
2017-04-19T02:20:01.965Z,16.17
2017-04-19T02:21:07.648Z,16.43
2017-04-19T02:22:13.214Z,15.08
2017-04-19T02:23:18.888Z,16.15
2017-04-19T02:24:24.398Z,16.85
2017-04-19T02:25:29.204Z,14.45
2017-04-19T02:26:35.664Z,16.00
2017-04-19T02:27:40.471Z,16.28
2017-04-19T02:28:46.950Z,15.90
2017-04-19T02:29:52.417Z,15.42
2017-04-19T02:30:57.923Z,15.02
2017-04-19T02:32:02.784Z,14.37
2017-04-19T02:33:09.010Z,13.80
2017-04-19T02:34:15.509Z,15.48
2017-04-19T02:35:20.329Z,15.48
2017-04-19T02:36:26.756Z,14.53
2017-04-19T02:37:32.328Z,14.23
2017-04-19T02:38:37.935Z,15.63
2017-04-19T02:39:42.749Z,15.22
2017-04-19T02:40:49.181Z,15.52
2017-04-19T02:41:54.775Z,14.88
2017-04-19T02:43:00.247Z,14.85
2017-04-19T02:44:05.832Z,15.12
2017-04-19T02:45:12.341Z,15.15
2017-04-19T02:46:17.910Z,14.48
2017-04-19T02:47:23.598Z,14.88
2017-04-19T02:48:29.241Z,13.93
2017-04-19T02:49:34.172Z,13.85
2017-04-19T02:50:39.866Z,15.02
2017-04-19T02:51:46.209Z,14.85
2017-04-19T02:52:52.641Z,15.62
2017-04-19T02:53:58.189Z,13.92
2017-04-19T02:55:03.670Z,14.08
2017-04-19T02:56:09.204Z,14.58
2017-04-19T02:57:14.628Z,14.33
2017-04-19T02:58:19.657Z,14.38
2017-04-19T02:59:25.961Z,15.02
2017-04-19T03:00:31.748Z,15.07
2017-04-19T03:01:37.474Z,14.03
2017-04-19T03:02:42.311Z,14.25
2017-04-19T03:03:48.656Z,15.67
2017-04-19T03:04:54.100Z,14.53
2017-04-19T03:05:58.855Z,14.12
2017-04-19T03:07:05.285Z,15.60
2017-04-19T03:08:11.814Z,14.55
2017-04-19T03:09:17.455Z,15.20
2017-04-19T03:10:22.889Z,16.35
2017-04-19T03:11:29.343Z,14.08
2017-04-19T03:12:34.971Z,15.00
2017-04-19T03:13:40.538Z,13.87
2017-04-19T03:14:45.462Z,15.18
2017-04-19T03:15:51.898Z,13.97
2017-04-19T03:16:56.663Z,15.10
2017-04-19T03:18:02.183Z,14.18
2017-04-19T03:19:08.714Z,14.10
2017-04-19T03:20:13.641Z,13.80
2017-04-19T03:21:20.093Z,14.32
2017-04-19T03:22:25.541Z,14.92
2017-04-19T03:23:30.529Z,13.73
2017-04-19T03:24:36.865Z,13.20
2017-04-19T03:25:42.456Z,13.90
2017-04-19T03:26:47.257Z,14.52
2017-04-19T03:27:53.699Z,14.55
2017-04-19T03:28:59.301Z,15.95
2017-04-19T03:30:04.242Z,14.62
2017-04-19T03:31:10.511Z,13.48
2017-04-19T03:32:16.076Z,14.27
2017-04-19T03:33:21.654Z,13.88
2017-04-19T03:34:27.317Z,13.82
2017-04-19T03:35:33.705Z,14.52
2017-04-19T03:36:38.624Z,13.67
2017-04-19T03:37:44.885Z,15.02
2017-04-19T03:38:49.793Z,13.97
2017-04-19T03:39:56.332Z,13.93
2017-04-19T03:41:01.018Z,13.17
2017-04-19T03:42:06.578Z,12.55
2017-04-19T03:43:12.588Z,14.53
2017-04-19T03:44:18.428Z,14.05
2017-04-19T03:45:24.949Z,14.53
2017-04-19T03:46:29.881Z,13.87
2017-04-19T03:47:35.356Z,15.23
2017-04-19T03:48:41.722Z,13.65
2017-04-19T03:49:46.656Z,14.90
2017-04-19T03:50:53.150Z,14.63
2017-04-19T03:51:59.641Z,14.12
2017-04-19T03:53:05.142Z,15.43
2017-04-19T03:54:10.758Z,15.73
2017-04-19T03:55:16.420Z,15.10
2017-04-19T03:56:22.075Z,14.20
2017-04-19T03:57:27.701Z,15.18
2017-04-19T03:58:34.137Z,14.28
2017-04-19T03:59:39.584Z,14.28
2017-04-19T04:00:45.125Z,14.13
2017-04-19T04:01:50.750Z,15.80
2017-04-19T04:02:56.196Z,15.05
2017-04-19T04:04:01.854Z,15.05
2017-04-19T04:05:07.520Z,15.97
2017-04-19T04:06:13.101Z,15.92
2017-04-19T04:07:18.901Z,16.20
2017-04-19T04:08:23.688Z,15.15
2017-04-19T04:09:29.377Z,16.38
2017-04-19T04:10:35.768Z,15.55
2017-04-19T04:11:41.370Z,15.97
2017-04-19T04:12:46.964Z,15.20
2017-04-19T04:13:51.775Z,15.87
2017-04-19T04:14:57.328Z,16.20
2017-04-19T04:16:03.803Z,15.35
2017-04-19T04:17:10.214Z,15.33
2017-04-19T04:18:15.895Z,14.87
2017-04-19T04:19:22.368Z,14.62
2017-04-19T04:20:27.989Z,14.48
2017-04-19T04:21:32.917Z,14.53
2017-04-19T04:22:39.230Z,16.30
2017-04-19T04:23:44.062Z,15.12
2017-04-19T04:24:50.475Z,15.00
2017-04-19T04:25:56.152Z,14.83
2017-04-19T04:27:01.732Z,13.50
2017-04-19T04:28:06.492Z,13.72
2017-04-19T04:29:12.086Z,15.07
2017-04-19T04:30:18.297Z,15.17
2017-04-19T04:31:23.839Z,14.25
2017-04-19T04:32:28.672Z,14.60
2017-04-19T04:33:34.229Z,13.05
2017-04-19T04:34:39.827Z,13.75
2017-04-19T04:35:46.148Z,14.47
2017-04-19T04:36:50.958Z,12.98
2017-04-19T04:37:57.253Z,15.00
2017-04-19T04:39:02.125Z,13.95
2017-04-19T04:40:07.683Z,13.82
2017-04-19T04:41:14.073Z,14.18
2017-04-19T04:42:19.692Z,13.60
2017-04-19T04:43:25.209Z,13.35
2017-04-19T04:44:30.722Z,14.33
2017-04-19T04:45:36.230Z,13.40
2017-04-19T04:46:42.575Z,14.17
2017-04-19T04:47:47.581Z,14.42
2017-04-19T04:48:53.065Z,13.27
2017-04-19T04:49:58.746Z,12.87
2017-04-19T04:51:05.248Z,13.93
2017-04-19T04:52:11.747Z,13.68
2017-04-19T04:53:16.732Z,14.18
2017-04-19T04:54:23.018Z,14.03
2017-04-19T04:55:27.841Z,12.97
2017-04-19T04:56:32.572Z,13.70
2017-04-19T04:57:38.197Z,13.08
2017-04-19T04:58:43.829Z,13.12
2017-04-19T04:59:50.069Z,12.32
2017-04-19T05:00:54.980Z,11.73
2017-04-19T05:02:01.456Z,12.00
2017-04-19T05:03:07.922Z,15.23
2017-04-19T05:04:12.647Z,12.65
2017-04-19T05:05:18.047Z,11.82
2017-04-19T05:06:23.660Z,12.48
2017-04-19T05:07:30.001Z,11.83
2017-04-19T05:08:35.557Z,9.80
2017-04-19T05:09:40.538Z,9.52
2017-04-19T05:10:46.999Z,9.88
2017-04-19T05:11:51.893Z,10.07
2017-04-19T05:12:59.428Z,10.05
2017-04-19T05:14:04.250Z,9.67
2017-04-19T05:15:10.540Z,9.05
2017-04-19T05:16:15.994Z,8.57
2017-04-19T05:17:20.814Z,8.83
2017-04-19T05:18:27.186Z,8.58
2017-04-19T05:19:33.609Z,8.75
2017-04-19T05:20:38.391Z,8.15
2017-04-19T05:21:44.806Z,8.28
2017-04-19T05:22:51.041Z,8.87
2017-04-19T05:23:56.531Z,9.25
2017-04-19T05:25:02.506Z,8.97
2017-04-19T05:26:08.101Z,9.03
2017-04-19T05:27:13.731Z,8.02
2017-04-19T05:28:18.456Z,7.88
2017-04-19T05:29:24.737Z,8.90
2017-04-19T05:30:29.581Z,10.55
2017-04-19T05:31:35.842Z,8.90
2017-04-19T05:32:40.589Z,9.72
2017-04-19T05:33:46.849Z,9.20
2017-04-19T05:34:51.717Z,9.68
2017-04-19T05:35:57.974Z,9.97
2017-04-19T05:37:03.668Z,8.78
2017-04-19T05:38:09.247Z,7.57
2017-04-19T05:39:14.950Z,7.60
2017-04-19T05:40:20.453Z,7.35
2017-04-19T05:41:25.276Z,6.47
2017-04-19T05:42:31.502Z,6.23
2017-04-19T05:43:37.274Z,6.47
2017-04-19T05:44:42.828Z,5.98
2017-04-19T05:45:50.020Z,5.32
2017-04-19T05:46:54.840Z,5.27
2017-04-19T05:47:59.544Z,5.18
2017-04-19T05:49:05.842Z,5.02
2017-04-19T05:50:11.387Z,5.63
2017-04-19T05:51:16.392Z,4.87
2017-04-19T05:52:22.482Z,4.97
2017-04-19T05:53:27.222Z,4.77
2017-04-19T05:54:33.514Z,4.87
2017-04-19T05:55:39.287Z,5.47
2017-04-19T05:56:45.755Z,5.68
2017-04-19T05:57:50.601Z,4.42
2017-04-19T05:58:56.800Z,5.08
2017-04-19T06:00:02.548Z,5.52
2017-04-19T06:01:08.853Z,4.45
2017-04-19T06:02:14.216Z,4.27
2017-04-19T06:03:20.167Z,4.45
2017-04-19T06:04:25.657Z,4.07
2017-04-19T06:05:31.164Z,4.78
2017-04-19T06:06:36.693Z,4.38
2017-04-19T06:07:42.466Z,4.10
2017-04-19T06:08:48.064Z,5.05
2017-04-19T06:09:52.774Z,4.48
2017-04-19T06:10:59.147Z,3.83
2017-04-19T06:12:04.082Z,4.47
2017-04-19T06:13:10.397Z,4.67
2017-04-19T06:14:16.032Z,4.47
2017-04-19T06:15:21.073Z,4.35
2017-04-19T06:16:27.202Z,4.20
2017-04-19T06:17:32.742Z,4.63
2017-04-19T06:18:38.391Z,4.70
2017-04-19T06:19:43.887Z,4.37
2017-04-19T06:20:49.382Z,4.05
2017-04-19T06:21:55.120Z,4.65
2017-04-19T06:23:00.756Z,4.78
2017-04-19T06:24:06.439Z,4.80
2017-04-19T06:25:12.612Z,4.42
2017-04-19T06:26:17.382Z,4.50
2017-04-19T06:27:23.089Z,4.40
2017-04-19T06:28:29.425Z,4.20
2017-04-19T06:29:34.205Z,4.52
2017-04-19T06:30:40.508Z,4.58
2017-04-19T06:31:45.977Z,4.78
2017-04-19T06:32:51.549Z,4.37
2017-04-19T06:33:56.338Z,4.37
2017-04-19T06:35:02.027Z,4.45
2017-04-19T06:36:07.466Z,4.35
2017-04-19T06:37:13.782Z,4.50
2017-04-19T06:38:19.366Z,5.18
2017-04-19T06:39:24.142Z,4.28
2017-04-19T06:40:30.489Z,4.15
2017-04-19T06:41:36.141Z,4.80
2017-04-19T06:42:41.571Z,4.95
2017-04-19T06:43:47.138Z,5.02
2017-04-19T06:44:52.638Z,4.60
2017-04-19T06:45:58.363Z,4.37
2017-04-19T06:47:04.043Z,5.22
2017-04-19T06:48:09.609Z,4.80
2017-04-19T06:49:14.265Z,5.20
2017-04-19T06:50:19.890Z,4.88
2017-04-19T06:51:25.430Z,4.58
2017-04-19T06:52:31.032Z,4.77
2017-04-19T06:53:37.465Z,4.90
2017-04-19T06:54:43.081Z,4.53
2017-04-19T06:55:49.457Z,4.62
2017-04-19T06:56:55.028Z,5.05
2017-04-19T06:58:00.694Z,4.63
2017-04-19T06:59:06.088Z,5.60
2017-04-19T07:00:11.783Z,4.55
2017-04-19T07:01:17.293Z,4.82
2017-04-19T07:02:23.586Z,4.97
2017-04-19T07:03:29.150Z,4.58
2017-04-19T07:04:34.132Z,4.70
2017-04-19T07:05:39.528Z,4.73
2017-04-19T07:06:44.353Z,5.00
2017-04-19T07:07:49.805Z,4.72
2017-04-19T07:08:54.492Z,4.90
2017-04-19T07:09:59.225Z,4.67
2017-04-19T07:11:05.599Z,5.00
2017-04-19T07:12:10.296Z,4.98
2017-04-19T07:13:17.665Z,4.98
2017-04-19T07:14:22.431Z,4.82
2017-04-19T07:15:27.967Z,4.57
2017-04-19T07:16:34.260Z,5.00
2017-04-19T07:17:39.725Z,4.95
2017-04-19T07:18:45.361Z,4.97
2017-04-19T07:19:50.936Z,4.17
2017-04-19T07:20:56.625Z,4.93
2017-04-19T07:22:03.001Z,4.62
2017-04-19T07:23:08.627Z,4.35
2017-04-19T07:24:14.131Z,4.22
2017-04-19T07:25:19.586Z,4.90
2017-04-19T07:26:25.190Z,4.57
2017-04-19T07:27:30.877Z,4.03
2017-04-19T07:28:35.577Z,4.75
2017-04-19T07:29:41.882Z,4.78
2017-04-19T07:30:47.429Z,4.42
2017-04-19T07:31:53.778Z,4.23
2017-04-19T07:32:59.366Z,3.90
2017-04-19T07:34:04.108Z,4.55
2017-04-19T07:35:10.473Z,4.38
2017-04-19T07:36:15.280Z,4.17
2017-04-19T07:37:20.774Z,4.60
2017-04-19T07:38:27.143Z,4.25
2017-04-19T07:39:32.810Z,3.93
2017-04-19T07:40:37.674Z,4.53
2017-04-19T07:41:43.240Z,4.47
2017-04-19T07:42:49.691Z,4.72
2017-04-19T07:43:54.393Z,3.85
2017-04-19T07:44:59.141Z,4.33
2017-04-19T07:46:06.517Z,3.93
2017-04-19T07:47:13.054Z,4.82
2017-04-19T07:48:18.789Z,5.30
2017-04-19T07:49:23.711Z,4.03
2017-04-19T07:50:30.105Z,4.57
2017-04-19T07:51:34.953Z,4.43
2017-04-19T07:52:40.425Z,4.82
2017-04-19T07:53:46.840Z,4.48
2017-04-19T07:54:51.515Z,4.20
2017-04-19T07:55:57.215Z,4.22
2017-04-19T07:57:02.798Z,3.68
2017-04-19T07:58:08.221Z,4.23
2017-04-19T07:59:14.679Z,3.85
2017-04-19T08:00:20.385Z,4.55
2017-04-19T08:01:25.173Z,4.57
2017-04-19T08:02:31.456Z,4.57
2017-04-19T08:03:36.153Z,4.95
2017-04-19T08:04:43.459Z,4.32
2017-04-19T08:05:48.889Z,3.73
2017-04-19T08:06:54.390Z,4.60
2017-04-19T08:08:00.096Z,4.07
2017-04-19T08:09:06.468Z,4.33
2017-04-19T08:10:12.024Z,4.03
2017-04-19T08:11:17.631Z,4.53
2017-04-19T08:12:23.255Z,3.85
2017-04-19T08:13:29.938Z,4.18
2017-04-19T08:14:35.549Z,4.12
2017-04-19T08:15:41.541Z,3.90
2017-04-19T08:16:47.813Z,3.45
2017-04-19T08:17:54.237Z,3.45
2017-04-19T08:18:59.077Z,2.85
2017-04-19T08:20:04.708Z,3.10
2017-04-19T08:21:09.485Z,3.33
2017-04-19T08:22:14.880Z,3.00
2017-04-19T08:23:20.545Z,3.25
2017-04-19T08:24:26.281Z,3.83
2017-04-19T08:25:31.906Z,3.12
2017-04-19T08:26:37.369Z,3.87
2017-04-19T08:27:43.860Z,3.17
2017-04-19T08:28:48.740Z,4.00
2017-04-19T08:29:55.257Z,3.63
2017-04-19T08:31:00.929Z,4.02
2017-04-19T08:32:05.730Z,3.70
2017-04-19T08:33:11.312Z,2.95
2017-04-19T08:34:17.593Z,3.37
2017-04-19T08:35:22.599Z,3.18
2017-04-19T08:36:28.731Z,3.03
2017-04-19T08:37:34.240Z,3.38
2017-04-19T08:38:39.838Z,3.13
2017-04-19T08:39:45.272Z,3.62
2017-04-19T08:40:50.033Z,3.18
2017-04-19T08:41:56.284Z,3.58
2017-04-19T08:43:01.226Z,3.18
2017-04-19T08:44:07.548Z,3.15
2017-04-19T08:45:13.199Z,3.62
2017-04-19T08:46:18.714Z,3.08
2017-04-19T08:47:23.374Z,3.13
2017-04-19T08:48:29.657Z,3.50
2017-04-19T08:49:35.163Z,2.97
2017-04-19T08:50:40.651Z,3.30
2017-04-19T08:51:46.459Z,3.02
2017-04-19T08:52:51.935Z,3.17
2017-04-19T08:53:57.425Z,3.45
2017-04-19T08:55:02.979Z,3.50
2017-04-19T08:56:09.381Z,3.42
2017-04-19T08:57:14.975Z,3.38
2017-04-19T08:58:19.767Z,3.75
2017-04-19T08:59:26.064Z,4.65
2017-04-19T09:00:31.589Z,3.22
2017-04-19T09:01:37.049Z,3.45
2017-04-19T09:02:42.388Z,3.17
2017-04-19T09:03:48.194Z,3.28
2017-04-19T09:04:53.768Z,3.27
2017-04-19T09:05:59.459Z,3.30
2017-04-19T09:07:04.283Z,3.23
2017-04-19T09:08:09.944Z,3.57
2017-04-19T09:09:16.199Z,4.05
2017-04-19T09:10:21.800Z,3.30
2017-04-19T09:11:26.536Z,3.33
2017-04-19T09:12:32.854Z,3.33
2017-04-19T09:13:39.259Z,2.70
2017-04-19T09:14:44.726Z,3.08
2017-04-19T09:15:50.245Z,2.82
2017-04-19T09:16:55.711Z,3.45
2017-04-19T09:18:01.462Z,3.33
2017-04-19T09:19:07.098Z,3.13
2017-04-19T09:20:12.627Z,3.42
2017-04-19T09:21:18.159Z,3.52
2017-04-19T09:22:23.138Z,2.95
2017-04-19T09:23:28.511Z,2.95
2017-04-19T09:24:34.852Z,2.85
2017-04-19T09:25:40.368Z,3.23
2017-04-19T09:26:45.853Z,3.35
2017-04-19T09:27:50.614Z,3.13
2017-04-19T09:28:56.977Z,3.27
2017-04-19T09:30:02.745Z,3.12
2017-04-19T09:31:08.418Z,3.18
2017-04-19T09:32:14.800Z,3.40
2017-04-19T09:33:20.338Z,3.23
2017-04-19T09:34:25.910Z,3.35
2017-04-19T09:35:31.702Z,3.63
2017-04-19T09:36:37.722Z,3.60
2017-04-19T09:37:43.396Z,2.75
2017-04-19T09:38:48.878Z,3.70
2017-04-19T09:39:54.268Z,3.68
2017-04-19T09:40:59.422Z,3.20
2017-04-19T09:42:05.736Z,3.35
2017-04-19T09:43:11.349Z,4.10
2017-04-19T09:44:16.786Z,3.18
2017-04-19T09:45:22.345Z,3.52
2017-04-19T09:46:28.730Z,3.73
2017-04-19T09:47:34.333Z,3.73
2017-04-19T09:48:39.143Z,3.63
2017-04-19T09:49:45.464Z,3.72
2017-04-19T09:50:50.209Z,3.30
2017-04-19T09:51:55.950Z,4.00
2017-04-19T09:53:02.062Z,3.38
2017-04-19T09:54:07.714Z,3.20
2017-04-19T09:55:13.297Z,3.63
2017-04-19T09:56:18.101Z,4.08
2017-04-19T09:57:23.720Z,3.17
2017-04-19T09:58:30.105Z,3.55
2017-04-19T09:59:34.740Z,3.40
2017-04-19T10:00:40.325Z,3.33
2017-04-19T10:01:45.838Z,3.58
2017-04-19T10:02:51.568Z,4.60
2017-04-19T10:03:56.397Z,3.75
2017-04-19T10:05:02.694Z,4.02
2017-04-19T10:06:08.353Z,3.78
2017-04-19T10:07:13.834Z,4.35
2017-04-19T10:08:18.675Z,3.38
2017-04-19T10:09:23.929Z,3.92
2017-04-19T10:10:30.173Z,3.57
2017-04-19T10:11:34.948Z,3.98
2017-04-19T10:12:41.381Z,3.95
2017-04-19T10:13:47.922Z,3.43
2017-04-19T10:14:52.724Z,3.48
2017-04-19T10:15:58.209Z,4.27
2017-04-19T10:17:03.154Z,4.23
2017-04-19T10:18:09.448Z,3.95
2017-04-19T10:19:14.905Z,3.97
2017-04-19T10:20:20.402Z,3.65
2017-04-19T10:21:25.944Z,4.17
2017-04-19T10:22:30.636Z,3.88
2017-04-19T10:23:36.223Z,4.20
2017-04-19T10:24:41.836Z,4.23
2017-04-19T10:25:48.240Z,4.10
2017-04-19T10:26:53.846Z,4.75
2017-04-19T10:27:58.737Z,4.25
2017-04-19T10:29:05.081Z,3.65
2017-04-19T10:30:10.678Z,4.40
2017-04-19T10:31:15.429Z,4.55
2017-04-19T10:32:21.693Z,4.60
2017-04-19T10:33:27.312Z,5.10
2017-04-19T10:34:32.196Z,5.32
2017-04-19T10:35:37.170Z,4.37
2017-04-19T10:36:42.782Z,4.92
2017-04-19T10:37:49.123Z,5.62
2017-04-19T10:38:54.885Z,4.77
2017-04-19T10:40:00.504Z,4.73
2017-04-19T10:41:05.185Z,4.60
2017-04-19T10:42:10.811Z,4.35
2017-04-19T10:43:16.413Z,4.48
2017-04-19T10:44:22.789Z,4.77
2017-04-19T10:45:27.608Z,5.08
2017-04-19T10:46:33.910Z,5.27
2017-04-19T10:47:38.730Z,4.90
2017-04-19T10:48:44.237Z,5.62
2017-04-19T10:49:50.605Z,4.45
2017-04-19T10:50:55.318Z,5.58
2017-04-19T10:52:00.978Z,4.68
2017-04-19T10:53:05.950Z,4.83
2017-04-19T10:54:11.500Z,4.68
2017-04-19T10:55:17.893Z,4.73
2017-04-19T10:56:23.382Z,4.15
2017-04-19T10:57:28.472Z,4.12
2017-04-19T10:58:33.946Z,4.30
2017-04-19T10:59:38.711Z,3.93
2017-04-19T11:00:44.232Z,4.57
2017-04-19T11:01:49.853Z,4.05
2017-04-19T11:02:56.172Z,4.02
2017-04-19T11:04:01.757Z,3.87
2017-04-19T11:05:06.432Z,3.97
2017-04-19T11:06:12.892Z,4.25
2017-04-19T11:07:18.454Z,4.18
2017-04-19T11:08:23.940Z,4.00
2017-04-19T11:09:29.470Z,4.40
2017-04-19T11:10:34.181Z,3.85
2017-04-19T11:11:40.478Z,4.28
2017-04-19T11:12:45.892Z,4.07
2017-04-19T11:13:52.558Z,4.27
2017-04-19T11:14:58.130Z,4.00
2017-04-19T11:16:02.907Z,4.18
2017-04-19T11:17:09.205Z,4.78
2017-04-19T11:18:13.926Z,4.48
2017-04-19T11:19:20.210Z,4.73
2017-04-19T11:20:25.870Z,4.30
2017-04-19T11:21:31.292Z,4.53
2017-04-19T11:22:36.892Z,5.25
2017-04-19T11:23:41.590Z,4.62
2017-04-19T11:24:46.467Z,5.02
2017-04-19T11:25:52.555Z,4.33
2017-04-19T11:26:58.216Z,5.33
2017-04-19T11:28:03.858Z,5.00
2017-04-19T11:29:10.286Z,4.65
2017-04-19T11:30:15.990Z,4.77
2017-04-19T11:31:20.815Z,4.58
2017-04-19T11:32:27.093Z,3.93
2017-04-19T11:33:32.710Z,4.25
2017-04-19T11:34:38.172Z,4.18
2017-04-19T11:35:43.975Z,4.90
2017-04-19T11:36:50.373Z,4.45
2017-04-19T11:37:56.020Z,4.07
2017-04-19T11:39:01.752Z,4.47
2017-04-19T11:40:07.675Z,4.42
2017-04-19T11:41:13.909Z,4.57
2017-04-19T11:42:19.352Z,4.70
2017-04-19T11:43:24.937Z,5.92
2017-04-19T11:44:30.388Z,5.03
2017-04-19T11:45:35.403Z,4.58
2017-04-19T11:46:41.965Z,4.78
2017-04-19T11:47:46.684Z,5.30
2017-04-19T11:48:53.273Z,4.73
2017-04-19T11:49:59.604Z,5.23
2017-04-19T11:51:06.091Z,5.03
2017-04-19T11:52:12.137Z,4.75
2017-04-19T11:53:18.573Z,4.48
2017-04-19T11:54:24.162Z,5.85
2017-04-19T11:55:29.112Z,5.15
2017-04-19T11:56:35.344Z,4.62
2017-04-19T11:57:40.980Z,4.70
2017-04-19T11:58:46.469Z,4.87
2017-04-19T11:59:51.915Z,4.45
2017-04-19T12:00:57.472Z,4.30
2017-04-19T12:02:02.215Z,4.50
2017-04-19T12:03:07.958Z,4.47
2017-04-19T12:04:14.329Z,4.50
2017-04-19T12:05:19.249Z,4.70
2017-04-19T12:06:25.608Z,4.25
2017-04-19T12:07:31.188Z,3.87
2017-04-19T12:08:36.144Z,4.63
2017-04-19T12:09:42.449Z,4.80
2017-04-19T12:10:47.208Z,5.33
2017-04-19T12:11:53.648Z,4.73
2017-04-19T12:12:59.246Z,4.32
2017-04-19T12:14:05.015Z,4.12
2017-04-19T12:15:09.753Z,4.38
2017-04-19T12:16:16.160Z,4.98
2017-04-19T12:17:20.863Z,4.83
2017-04-19T12:18:27.274Z,3.78
2017-04-19T12:19:33.732Z,4.53
2017-04-19T12:20:39.335Z,4.50
2017-04-19T12:21:44.832Z,4.55
2017-04-19T12:22:50.349Z,4.33
2017-04-19T12:23:55.933Z,5.17
2017-04-19T12:25:01.656Z,4.35
2017-04-19T12:26:07.289Z,4.50
2017-04-19T12:27:12.800Z,4.77
2017-04-19T12:28:18.405Z,4.87
2017-04-19T12:29:23.904Z,5.25
2017-04-19T12:30:29.556Z,4.80
2017-04-19T12:31:35.192Z,4.23
2017-04-19T12:32:40.866Z,4.92
2017-04-19T12:33:47.264Z,5.43
2017-04-19T12:34:52.878Z,5.40
2017-04-19T12:35:58.051Z,5.33
2017-04-19T12:37:04.265Z,5.75
2017-04-19T12:38:09.917Z,7.43
2017-04-19T12:39:16.385Z,5.62
2017-04-19T12:40:21.137Z,5.73
2017-04-19T12:41:28.337Z,4.97
2017-04-19T12:42:33.214Z,6.40
2017-04-19T12:43:39.541Z,5.28
2017-04-19T12:44:45.100Z,5.67
2017-04-19T12:45:50.817Z,5.50
2017-04-19T12:46:56.538Z,6.00
2017-04-19T12:48:02.939Z,5.65
2017-04-19T12:49:08.484Z,4.80
2017-04-19T12:50:13.232Z,4.80
2017-04-19T12:51:19.637Z,4.78
2017-04-19T12:52:25.293Z,4.42
2017-04-19T12:53:31.693Z,4.62
2017-04-19T12:54:37.186Z,5.05
2017-04-19T12:55:42.808Z,4.65
2017-04-19T12:56:49.216Z,5.62
2017-04-19T12:57:54.125Z,5.67
2017-04-19T12:58:59.701Z,5.85
2017-04-19T13:00:06.136Z,5.65
2017-04-19T13:01:11.822Z,5.92
2017-04-19T13:02:16.636Z,4.47
2017-04-19T13:03:23.050Z,4.40
2017-04-19T13:04:27.856Z,4.53
2017-04-19T13:05:33.504Z,5.00
2017-04-19T13:06:39.729Z,5.25
2017-04-19T13:07:45.260Z,5.02
2017-04-19T13:08:50.916Z,4.35
2017-04-19T13:09:56.576Z,4.97
2017-04-19T13:11:02.194Z,5.28
2017-04-19T13:12:08.561Z,5.32
2017-04-19T13:13:14.089Z,5.25
2017-04-19T13:14:20.559Z,4.92
2017-04-19T13:15:26.212Z,6.02
2017-04-19T13:16:31.664Z,4.93
2017-04-19T13:17:37.213Z,4.63
2017-04-19T13:18:42.787Z,5.10
2017-04-19T13:19:47.682Z,5.40
2017-04-19T13:20:53.991Z,5.23
2017-04-19T13:21:59.618Z,5.48
2017-04-19T13:23:04.456Z,4.28
2017-04-19T13:24:09.967Z,3.90
2017-04-19T13:25:15.668Z,3.65
2017-04-19T13:26:22.016Z,3.62
2017-04-19T13:27:26.749Z,3.05
2017-04-19T13:28:32.213Z,4.23
2017-04-19T13:29:37.749Z,4.48
2017-04-19T13:30:44.139Z,4.02
2017-04-19T13:31:48.865Z,4.50
2017-04-19T13:32:55.277Z,4.02
2017-04-19T13:34:00.913Z,4.03
2017-04-19T13:35:05.788Z,4.20
2017-04-19T13:36:11.496Z,4.27
2017-04-19T13:37:17.565Z,3.73
2017-04-19T13:38:23.241Z,3.57
2017-04-19T13:39:28.889Z,3.68
2017-04-19T13:40:34.494Z,2.93
2017-04-19T13:41:39.931Z,3.05
2017-04-19T13:42:45.460Z,3.33
2017-04-19T13:43:51.146Z,3.05
2017-04-19T13:44:56.796Z,3.58
2017-04-19T13:46:02.461Z,4.23
2017-04-19T13:47:08.120Z,4.58
2017-04-19T13:48:13.598Z,3.95
2017-04-19T13:49:18.458Z,3.55
2017-04-19T13:50:23.968Z,3.90
2017-04-19T13:51:30.313Z,4.43
2017-04-19T13:52:35.201Z,3.97
2017-04-19T13:53:40.777Z,4.60
2017-04-19T13:54:47.116Z,4.20
2017-04-19T13:55:52.665Z,4.70
2017-04-19T13:56:57.868Z,3.80
2017-04-19T13:58:04.053Z,4.30
2017-04-19T13:59:09.552Z,4.30
2017-04-19T14:00:15.068Z,3.97
2017-04-19T14:01:20.770Z,3.72
2017-04-19T14:02:26.247Z,3.95
2017-04-19T14:03:32.308Z,3.68
2017-04-19T14:04:37.924Z,4.20
2017-04-19T14:05:43.182Z,3.82
2017-04-19T14:06:48.820Z,3.18
2017-04-19T14:07:55.073Z,3.37
2017-04-19T14:09:00.686Z,3.53
2017-04-19T14:10:06.272Z,3.63
2017-04-19T14:11:12.060Z,3.73
2017-04-19T14:12:16.763Z,3.68
2017-04-19T14:13:23.137Z,3.63
2017-04-19T14:14:29.612Z,3.15
2017-04-19T14:15:34.494Z,3.85
2017-04-19T14:16:40.085Z,3.43
2017-04-19T14:17:45.604Z,3.42
2017-04-19T14:18:51.082Z,3.68
2017-04-19T14:19:56.755Z,3.30
2017-04-19T14:21:02.243Z,4.55
2017-04-19T14:22:07.034Z,3.08
2017-04-19T14:23:12.622Z,4.67
2017-04-19T14:24:17.430Z,5.05